Time;durP1;ratioP1;P1;durP2;ratioP2;P2;SDS_P1;SDS_P2;PMS_P1;PMS_P2;Temp;Humidity;BMP_temperature;BMP_pressure;BME280_temperature;BME280_humidity;BME280_pressure;Samples;Min_cycle;Max_cycle;Signal;HPM_P1;HPM_P2
2022/05/09 00:02:16;;;;;;;12.73;6.20;;;;;;;15.09;66.36;99131.41;5073033;28;20020;-49
2022/05/09 00:04:42;;;;;;;13.63;8.07;;;;;;;15.18;66.54;99130.09;5072991;28;20402;-50
2022/05/09 00:07:08;;;;;;;8.32;6.15;;;;;;;15.32;65.93;99128.13;5072935;28;20052;-50
2022/05/09 00:09:34;;;;;;;9.32;5.53;;;;;;;15.20;65.76;99130.69;5074162;28;20016;-50
2022/05/09 00:12:00;;;;;;;10.77;6.45;;;;;;;15.01;65.83;99131.69;5074117;28;20520;-50
2022/05/09 00:14:26;;;;;;;5.90;5.30;;;;;;;14.87;66.29;99131.81;5074122;28;20028;-50
2022/05/09 00:16:52;;;;;;;9.57;5.63;;;;;;;14.98;66.29;99131.09;5073982;28;20017;-50
2022/05/09 00:19:23;;;;;;;10.10;4.63;;;;;;;15.02;66.06;99131.47;5072641;28;20031;-50
2022/05/09 00:21:51;;;;;;;10.88;7.07;;;;;;;15.04;66.01;99131.25;5072593;28;20024;-50
2022/05/09 00:24:18;;;;;;;11.95;10.55;;;;;;;15.17;65.72;99131.13;5072551;28;20119;-50
2022/05/09 00:26:48;;;;;;;9.40;5.80;;;;;;;15.17;65.53;99126.66;5073859;28;20095;-50
2022/05/09 00:29:16;;;;;;;10.63;5.38;;;;;;;15.18;65.64;99122.97;5073764;28;20120;-49
2022/05/09 00:31:46;;;;;;;12.60;7.95;;;;;;;15.24;65.42;99131.88;5072222;28;20052;-50
2022/05/09 00:34:18;;;;;;;8.55;6.15;;;;;;;15.32;64.95;99136.06;5072333;28;20418;-49
2022/05/09 00:36:45;;;;;;;15.75;8.98;;;;;;;15.39;64.78;99136.78;5073682;28;20036;-50
2022/05/09 00:39:12;;;;;;;11.35;7.05;;;;;;;15.55;64.05;99122.16;5072552;28;20107;-50
2022/05/09 00:41:39;;;;;;;8.23;6.45;;;;;;;15.62;63.46;99127.38;5072166;28;20029;-50
2022/05/09 00:44:11;;;;;;;5.43;4.75;;;;;;;15.52;63.27;99123.41;5073473;28;20075;-50
2022/05/09 00:46:42;;;;;;;11.57;9.57;;;;;;;15.28;63.25;99130.41;5073533;28;20463;-49
2022/05/09 00:49:27;;;;;;;9.93;8.63;;;;;;;15.04;63.90;99133.91;5073424;28;20039;-50
2022/05/09 00:52:16;;;;;;;;;;;;;;;14.81;64.58;99124.78;5072443;28;20040;-49
2022/05/09 00:55:15;;;;;;;9.05;7.35;;;;;;;14.58;65.60;99128.78;5073168;28;20013;-50
2022/05/09 00:57:50;;;;;;;6.80;5.45;;;;;;;14.51;65.72;99132.50;5067857;28;20133;-50
2022/05/09 01:00:17;;;;;;;;;;;;;;;14.47;65.74;99136.59;5073593;28;20040;-50
2022/05/09 01:02:49;;;;;;;9.27;7.38;;;;;;;14.50;65.93;99141.44;5073082;28;19912;-50
2022/05/09 01:05:16;;;;;;;11.07;7.88;;;;;;;14.50;65.76;99144.06;5073074;28;20020;-49
2022/05/09 01:07:43;;;;;;;5.82;5.32;;;;;;;14.41;66.23;99142.72;5073036;28;20048;-51
2022/05/09 01:10:15;;;;;;;8.93;6.25;;;;;;;14.28;66.15;99144.41;5072976;28;20029;-49
2022/05/09 01:12:45;;;;;;;8.15;5.45;;;;;;;14.17;66.31;99148.56;5071575;28;20081;-49
2022/05/09 01:15:16;;;;;;;9.27;8.38;;;;;;;14.08;66.56;99146.38;5071531;28;20480;-49
2022/05/09 01:17:45;;;;;;;5.63;5.13;;;;;;;13.99;66.70;99143.97;5072868;28;20036;-50
2022/05/09 01:20:12;;;;;;;7.25;5.32;;;;;;;13.95;67.60;99147.25;5072646;28;20016;-50
2022/05/09 01:22:39;;;;;;;6.25;4.82;;;;;;;14.18;67.38;99150.19;5072713;28;20049;-50
2022/05/09 01:25:14;;;;;;;8.57;5.32;;;;;;;14.35;66.68;99139.91;5072588;28;20020;-50
2022/05/09 01:27:42;;;;;;;11.50;6.90;;;;;;;14.54;65.87;99151.34;5072688;28;20031;-49
2022/05/09 01:30:28;;;;;;;5.20;4.70;;;;;;;14.78;65.27;99147.13;5071005;28;20445;-50
2022/05/09 01:33:14;;;;;;;11.73;7.70;;;;;;;14.83;65.14;99150.97;5072594;28;20044;-49
2022/05/09 01:35:57;;;;;;;5.35;4.82;;;;;;;14.76;64.80;99151.03;5072560;28;20041;-50
2022/05/09 01:38:28;;;;;;;7.07;5.78;;;;;;;14.60;65.42;99157.63;5072495;28;20107;-50
2022/05/09 01:40:54;;;;;;;10.55;5.70;;;;;;;14.60;65.62;99155.00;5070909;28;20520;-50
2022/05/09 01:43:33;;;;;;;7.63;6.35;;;;;;;14.73;65.66;99164.69;5071085;28;20020;-50
2022/05/09 01:46:03;;;;;;;13.82;7.15;;;;;;;14.76;65.38;99165.03;5072296;28;20093;-49
2022/05/09 01:51:13;;;;;;;9.95;8.18;;;;;;;14.75;65.57;99159.97;5072492;28;20039;-50
2022/05/09 01:53:39;;;;;;;7.13;6.38;;;;;;;14.66;65.46;99156.78;5072165;28;20549;-50
2022/05/09 01:56:05;;;;;;;8.27;6.65;;;;;;;14.64;65.67;99156.19;5072387;28;20029;-50
2022/05/09 01:58:31;;;;;;;7.75;5.95;;;;;;;14.69;65.80;99159.00;5070806;28;20482;-50
2022/05/09 02:00:57;;;;;;;12.70;7.22;;;;;;;14.78;65.76;99157.69;5071934;28;20017;-49
2022/05/09 02:03:23;;;;;;;6.43;5.70;;;;;;;14.79;65.81;99163.81;5071641;28;20023;-49
2022/05/09 02:05:49;;;;;;;10.48;6.25;;;;;;;14.79;65.38;99163.81;5071966;28;20021;-50
2022/05/09 02:08:14;;;;;;;11.65;8.23;;;;;;;14.77;65.48;99161.38;5070693;28;20558;-49
2022/05/09 02:10:41;;;;;;;8.50;6.10;;;;;;;14.61;65.45;99155.81;5070649;28;20029;-50
2022/05/09 02:13:08;;;;;;;10.13;6.43;;;;;;;14.51;66.00;99151.78;5071987;28;20021;-50
2022/05/09 02:15:33;;;;;;;8.73;5.72;;;;;;;14.48;65.89;99157.50;5071806;28;20168;-50
2022/05/09 02:17:59;;;;;;;15.30;7.10;;;;;;;14.35;66.15;99161.03;5071888;28;20487;-50
2022/05/09 02:20:25;;;;;;;13.10;8.20;;;;;;;14.36;66.55;99159.19;5071783;28;20021;-49
2022/05/09 02:22:51;;;;;;;13.27;8.07;;;;;;;14.56;66.35;99156.44;5071758;28;20093;-50
2022/05/09 02:25:26;;;;;;;9.43;6.85;;;;;;;14.83;65.71;99159.72;5071811;28;20371;-50
2022/05/09 02:27:53;;;;;;;8.00;5.57;;;;;;;14.93;64.69;99161.84;5071800;28;20032;-50
2022/05/09 02:30:19;;;;;;;11.80;5.53;;;;;;;14.84;64.38;99160.50;5071420;28;20421;-50
2022/05/09 02:32:45;;;;;;;7.40;6.15;;;;;;;14.74;64.62;99163.63;5071748;28;20036;-50
2022/05/09 02:35:10;;;;;;;11.57;5.90;;;;;;;14.82;64.90;99171.28;5071651;28;20017;-50
2022/05/09 02:37:36;;;;;;;8.48;5.28;;;;;;;14.84;64.43;99165.81;5071671;28;20562;-50
2022/05/09 02:40:03;;;;;;;12.75;5.90;;;;;;;14.68;64.36;99169.78;5071553;28;20048;-50
2022/05/09 02:42:28;;;;;;;8.30;5.20;;;;;;;14.51;64.71;99172.13;5071662;28;20092;-50
2022/05/09 02:44:54;;;;;;;7.88;5.18;;;;;;;14.38;65.14;99179.06;5071597;28;20036;-51
2022/05/09 02:47:20;;;;;;;13.65;12.32;;;;;;;14.30;65.72;99175.88;5070274;28;20051;-50
2022/05/09 02:49:46;;;;;;;12.35;9.52;;;;;;;14.30;65.44;99184.63;5087095;28;20020;-50
2022/05/09 02:52:12;;;;;;;6.63;5.82;;;;;;;14.24;65.28;99176.75;5071489;28;20028;-50
2022/05/09 02:54:38;;;;;;;6.57;5.45;;;;;;;14.15;66.11;99186.75;5070237;28;20021;-50
2022/05/09 02:57:05;;;;;;;12.63;5.90;;;;;;;14.21;66.14;99179.81;5071501;28;20029;-50
2022/05/09 02:59:31;;;;;;;9.27;5.78;;;;;;;14.27;65.94;99181.63;5071700;28;20045;-50
2022/05/09 03:01:57;;;;;;;9.60;6.78;;;;;;;14.38;65.82;99187.00;5071346;28;20071;-51
2022/05/09 03:04:41;;;;;;;12.68;7.80;;;;;;;14.55;65.23;99189.97;5071430;28;20021;-50
2022/05/09 03:07:12;;;;;;;11.18;6.38;;;;;;;14.73;64.60;99183.97;5071462;28;20021;-49
2022/05/09 03:09:41;;;;;;;10.85;6.88;;;;;;;14.65;64.68;99184.25;5070026;28;20116;-50
2022/05/09 03:12:08;;;;;;;14.07;7.38;;;;;;;14.71;64.24;99180.75;5071327;28;20473;-50
2022/05/09 03:14:38;;;;;;;9.25;5.93;;;;;;;14.77;63.69;99179.06;5071367;28;20024;-50
2022/05/09 03:17:06;;;;;;;12.98;5.78;;;;;;;14.67;63.79;99184.84;5075142;28;20111;-50
2022/05/09 03:19:33;;;;;;;10.05;7.43;;;;;;;14.52;64.06;99176.38;5073814;28;20030;-51
2022/05/09 03:21:59;;;;;;;8.80;6.25;;;;;;;14.44;64.36;99184.53;5074943;28;20052;-50
2022/05/09 03:24:25;;;;;;;5.45;4.95;;;;;;;14.45;64.21;99181.69;5073702;28;20031;-50
2022/05/09 03:26:51;;;;;;;12.02;6.50;;;;;;;14.36;64.29;99181.13;5073605;28;20028;-49
2022/05/09 03:29:24;;;;;;;8.35;6.30;;;;;;;14.41;64.49;99184.97;5073596;28;20446;-49
2022/05/09 03:31:52;;;;;;;7.75;6.65;;;;;;;14.44;64.56;99177.44;5074734;28;20456;-50
2022/05/09 03:34:18;;;;;;;7.97;5.63;;;;;;;14.49;64.20;99182.88;5074813;28;20048;-50
2022/05/09 03:36:44;;;;;;;10.32;6.13;;;;;;;14.45;64.28;99192.25;5074773;28;20067;-50
2022/05/09 03:39:10;;;;;;;10.27;6.38;;;;;;;14.36;63.96;99189.03;5074746;28;20456;-50
2022/05/09 03:41:36;;;;;;;11.38;7.13;;;;;;;14.20;64.80;99189.53;5073247;28;20059;-50
2022/05/09 03:44:03;;;;;;;8.02;5.40;;;;;;;14.12;64.97;99195.06;5073379;28;20033;-50
2022/05/09 03:46:29;;;;;;;8.73;7.25;;;;;;;13.96;65.46;99194.56;5074610;28;20162;-50
2022/05/09 03:48:55;;;;;;;6.35;5.85;;;;;;;13.70;65.67;99197.25;5074544;28;20020;-50
2022/05/09 03:51:20;;;;;;;14.40;7.05;;;;;;;13.58;66.67;99192.66;5074504;28;20033;-50
2022/05/09 03:53:46;;;;;;;10.48;6.50;;;;;;;13.58;66.81;99197.94;5074483;28;20398;-50
2022/05/09 03:56:12;;;;;;;10.80;7.47;;;;;;;13.65;66.80;99197.91;5073073;28;20029;-49
2022/05/09 03:58:39;;;;;;;10.30;7.25;;;;;;;13.88;66.47;99192.13;5074388;28;20103;-49
2022/05/09 04:01:05;;;;;;;13.32;6.38;;;;;;;14.03;66.04;99199.78;5072982;28;20024;-50
2022/05/09 04:03:31;;;;;;;10.07;6.47;;;;;;;14.01;65.62;99201.03;5074274;28;20240;-50
2022/05/09 04:05:57;;;;;;;9.52;6.13;;;;;;;13.97;65.87;99198.00;5072945;28;20025;-50
2022/05/09 04:08:23;;;;;;;13.63;8.55;;;;;;;13.92;65.81;99203.91;5074236;28;20024;-48
2022/05/09 04:10:52;;;;;;;10.90;6.95;;;;;;;14.11;65.77;99206.66;5074113;28;20025;-50
2022/05/09 04:13:18;;;;;;;6.28;5.57;;;;;;;14.07;65.09;99206.28;5074107;28;20056;-50
2022/05/09 04:18:35;;;;;;;9.05;5.85;;;;;;;13.99;65.05;99217.88;5074369;28;20032;-49
2022/05/09 04:21:00;;;;;;;9.50;5.78;;;;;;;13.93;64.92;99217.91;5073928;28;20048;-49
2022/05/09 04:23:26;;;;;;;15.18;7.18;;;;;;;13.85;65.06;99213.66;5073912;28;20504;-50
2022/05/09 04:25:52;;;;;;;10.93;7.35;;;;;;;13.84;65.41;99224.41;5072122;28;20024;-51
2022/05/09 04:28:20;;;;;;;11.00;7.13;;;;;;;13.90;65.70;99219.09;5073873;28;20104;-50
2022/05/09 04:30:46;;;;;;;11.40;7.72;;;;;;;14.11;65.37;99225.94;5073538;28;20044;-50
2022/05/09 04:33:12;;;;;;;9.93;5.97;;;;;;;14.15;64.59;99228.97;5073720;28;20021;-50
2022/05/09 04:35:39;;;;;;;11.30;6.38;;;;;;;14.04;64.46;99227.78;5073681;28;20039;-49
2022/05/09 04:38:06;;;;;;;9.02;5.80;;;;;;;14.00;64.75;99221.31;5073694;28;20070;-50
2022/05/09 04:40:35;;;;;;;15.82;7.78;;;;;;;14.08;65.03;99222.91;5072212;28;20486;-50
2022/05/09 04:43:03;;;;;;;16.25;6.78;;;;;;;14.19;64.68;99224.91;5073600;28;20024;-50
2022/05/09 04:45:30;;;;;;;10.82;6.38;;;;;;;14.35;64.08;99231.53;5072189;28;20028;-49
2022/05/09 04:47:56;;;;;;;9.48;6.53;;;;;;;14.48;63.24;99228.78;5073475;28;20040;-49
2022/05/09 04:50:24;;;;;;;10.80;6.53;;;;;;;14.56;63.48;99239.13;5072133;28;20113;-51
2022/05/09 04:52:50;;;;;;;18.42;6.88;;;;;;;14.87;62.83;99234.91;5073478;28;20071;-50
2022/05/09 04:55:17;;;;;;;20.75;14.18;;;;;;;15.43;62.26;99237.66;5073363;28;20020;-50
2022/05/09 04:57:43;;;;;;;18.25;7.45;;;;;;;16.12;60.16;99222.50;5073336;28;20023;-50
2022/05/09 05:00:19;;;;;;;15.20;6.15;;;;;;;16.59;57.92;99233.28;5071900;28;20116;-50
2022/05/09 05:02:44;;;;;;;;;;;;;;;16.86;56.96;99238.19;5072306;28;20083;-50
2022/05/09 05:05:10;;;;;;;;;;;;;;;16.93;56.65;99230.97;5073588;28;20385;-50
2022/05/09 05:07:36;;;;;;;14.80;7.22;;;;;;;17.01;55.86;99233.28;5073120;28;19912;-50
2022/05/09 05:10:03;;;;;;;13.00;5.85;;;;;;;16.99;55.79;99239.84;5071719;28;20158;-50
2022/05/09 05:12:29;;;;;;;12.13;7.68;;;;;;;16.96;55.70;99252.53;5072928;28;20025;-50
2022/05/09 05:14:55;;;;;;;23.05;9.73;;;;;;;17.01;56.22;99243.88;5072958;28;20103;-50
2022/05/09 05:17:21;;;;;;;17.27;7.53;;;;;;;17.58;55.40;99254.72;5072947;28;20089;-49
2022/05/09 05:19:48;;;;;;;26.30;9.23;;;;;;;18.19;54.16;99245.66;5072833;28;20478;-50
2022/05/09 05:22:15;;;;;;;10.50;5.88;;;;;;;18.63;52.20;99251.25;5072655;28;20502;-49
2022/05/09 05:24:47;;;;;;;9.98;5.60;;;;;;;18.91;50.78;99255.75;5072736;28;20029;-50
2022/05/09 05:27:14;;;;;;;9.93;7.00;;;;;;;19.26;50.03;99255.53;5072677;28;20036;-51
2022/05/09 05:29:41;;;;;;;8.48;5.38;;;;;;;19.46;48.99;99260.34;5072670;28;20024;-50
2022/05/09 05:32:36;;;;;;;17.80;6.40;;;;;;;19.80;48.88;99260.31;5072389;28;20417;-50
2022/05/09 05:35:04;;;;;;;9.40;5.07;;;;;;;20.24;47.18;99268.31;5072178;28;20525;-49
2022/05/09 05:37:30;;;;;;;31.73;8.00;;;;;;;19.81;48.39;99271.75;5070768;28;20032;-51
2022/05/09 05:39:57;;;;;;;16.52;9.05;;;;;;;19.10;49.50;99272.28;5072406;28;20013;-50
2022/05/09 05:42:23;;;;;;;12.50;6.63;;;;;;;18.55;51.10;99282.50;5072236;28;20021;-50
2022/05/09 05:44:49;;;;;;;11.38;5.45;;;;;;;18.45;51.37;99273.50;5072353;28;20024;-50
2022/05/09 05:47:18;;;;;;;8.18;5.47;;;;;;;18.71;51.21;99272.97;5072324;28;20028;-50
2022/05/09 05:49:44;;;;;;;10.25;6.70;;;;;;;19.93;49.01;99281.22;5072180;28;20013;-50
2022/05/09 05:52:11;;;;;;;15.07;7.13;;;;;;;20.99;46.39;99275.69;5072202;28;20577;-50
2022/05/09 05:54:40;;;;;;;15.50;7.75;;;;;;;21.60;45.74;99276.19;5070871;28;20521;-51
2022/05/09 05:57:17;;;;;;;14.35;7.93;;;;;;;21.10;46.09;99288.88;5072160;28;20490;-50
2022/05/09 05:59:51;;;;;;;11.32;5.20;;;;;;;20.34;46.75;99289.75;5072133;28;20025;-51
2022/05/09 06:02:17;;;;;;;8.95;5.55;;;;;;;19.56;48.68;99292.44;5072008;28;20025;-51
2022/05/09 06:04:43;;;;;;;11.50;5.65;;;;;;;19.10;49.94;99294.38;5072055;28;20390;-50
2022/05/09 06:07:11;;;;;;;8.55;5.68;;;;;;;18.87;50.35;99289.19;5071982;28;20044;-50
2022/05/09 06:09:37;;;;;;;8.57;5.22;;;;;;;18.77;50.71;99300.41;5071998;28;20031;-50
2022/05/09 06:12:02;;;;;;;10.80;5.90;;;;;;;18.67;51.08;99300.25;5070654;28;20025;-51
2022/05/09 06:14:28;;;;;;;5.95;5.45;;;;;;;18.61;51.16;99302.00;5071856;28;20383;-50
2022/05/09 06:16:54;;;;;;;11.60;6.50;;;;;;;18.68;51.50;99300.00;5071927;28;20505;-50
2022/05/09 06:19:21;;;;;;;12.32;6.65;;;;;;;19.09;50.78;99298.06;5071865;28;20435;-50
2022/05/09 06:21:47;;;;;;;7.95;6.28;;;;;;;19.51;50.12;99307.53;5072021;28;20414;-50
2022/05/09 06:24:13;;;;;;;7.18;5.75;;;;;;;19.82;49.33;99300.81;5070516;28;20035;-49
2022/05/09 06:26:40;;;;;;;10.02;6.30;;;;;;;20.09;48.79;99306.22;5071777;28;20056;-50
2022/05/09 06:29:06;;;;;;;18.98;10.25;;;;;;;20.47;48.88;99307.19;5071765;28;20024;-51
2022/05/09 06:31:36;;;;;;;13.70;6.18;;;;;;;21.44;46.99;99303.88;5071474;28;20036;-50
2022/05/09 06:34:03;;;;;;;8.05;5.75;;;;;;;22.78;43.83;99299.91;5071664;28;20035;-50
2022/05/09 06:36:32;;;;;;;12.10;6.53;;;;;;;22.93;43.21;99310.63;5071698;28;20028;-51
2022/05/09 06:38:58;;;;;;;16.20;6.10;;;;;;;23.11;42.91;99310.13;5070403;28;20021;-50
2022/05/09 06:41:24;;;;;;;14.82;6.07;;;;;;;23.86;41.04;99314.09;5071523;28;20360;-51
2022/05/09 06:43:50;;;;;;;19.50;6.30;;;;;;;24.25;40.06;99311.56;5071562;28;20059;-50
2022/05/09 06:46:16;;;;;;;22.63;5.97;;;;;;;24.39;40.24;99311.75;5070295;28;20021;-51
2022/05/09 06:48:42;;;;;;;23.30;6.43;;;;;;;24.88;39.10;99305.56;5071893;28;20036;-51
2022/05/09 06:51:07;;;;;;;14.38;5.65;;;;;;;25.80;37.50;99311.25;5075689;28;20029;-50
2022/05/09 06:53:33;;;;;;;13.88;5.90;;;;;;;25.61;37.64;99314.66;5074386;28;20059;-51
2022/05/09 06:55:59;;;;;;;14.57;5.45;;;;;;;25.34;38.06;99314.41;5075620;28;20371;-51
2022/05/09 06:58:25;;;;;;;19.45;7.35;;;;;;;25.26;38.12;99313.91;5075563;28;20434;-51
2022/05/09 07:00:52;;;;;;;29.02;5.85;;;;;;;25.14;38.61;99316.13;5075473;28;20199;-51
2022/05/09 07:03:20;;;;;;;19.75;5.85;;;;;;;25.38;38.20;99315.44;5075483;28;20406;-49
2022/05/09 07:05:47;;;;;;;11.98;6.18;;;;;;;25.44;38.02;99317.00;5074131;28;20024;-50
2022/05/09 07:08:14;;;;;;;10.75;5.97;;;;;;;25.38;38.16;99326.19;5075337;28;20394;-51
2022/05/09 07:10:40;;;;;;;9.32;5.57;;;;;;;25.44;38.02;99315.09;5073986;28;20029;-51
2022/05/09 07:13:06;;;;;;;25.63;6.28;;;;;;;25.56;37.78;99314.72;5075279;28;20498;-50
2022/05/09 07:15:33;;;;;;;20.80;5.53;;;;;;;25.78;37.48;99314.22;5075160;28;20025;-51
2022/05/09 07:18:00;;;;;;;34.83;6.43;;;;;;;26.26;36.77;99318.81;5075145;28;20062;-50
2022/05/09 07:20:28;;;;;;;216.23;118.53;;;;;;;27.07;35.35;99314.19;5073682;28;20022;-51
2022/05/09 07:22:57;;;;;;;88.05;43.47;;;;;;;27.82;34.12;99314.25;5075098;28;20021;-52
2022/05/09 07:25:24;;;;;;;26.88;9.57;;;;;;;27.98;33.29;99315.56;5075005;28;20029;-51
2022/05/09 07:27:50;;;;;;;53.55;9.55;;;;;;;27.48;33.18;99313.50;5074991;28;20070;-50
2022/05/09 07:30:22;;;;;;;61.13;11.23;;;;;;;27.21;33.85;99318.81;5073274;28;20090;-51
2022/05/09 07:32:52;;;;;;;21.30;6.28;;;;;;;28.59;31.59;99318.13;5074989;28;20077;-51
2022/05/09 07:35:18;;;;;;;38.53;7.30;;;;;;;29.87;29.90;99315.78;5074804;28;20048;-51
2022/05/09 07:37:47;;;;;;;13.35;6.63;;;;;;;30.93;27.88;99316.75;5074748;28;20055;-51
2022/05/09 07:40:15;;;;;;;20.63;6.78;;;;;;;31.70;26.74;99311.50;5074501;28;20169;-51
2022/05/09 07:42:42;;;;;;;24.90;7.38;;;;;;;32.60;26.43;99311.16;5074360;28;20017;-51
2022/05/09 07:45:11;;;;;;;30.50;6.95;;;;;;;33.29;25.09;99314.38;5074324;28;20081;-51
2022/05/09 07:47:38;;;;;;;15.88;5.50;;;;;;;33.15;25.24;99314.69;5074356;28;20069;-51
2022/05/09 07:50:05;;;;;;;9.48;5.70;;;;;;;33.37;24.39;99309.97;5339708;22;21925;-52
2022/05/09 07:52:31;;;;;;;17.58;6.20;;;;;;;33.54;24.91;99309.75;5054586;28;20189;-52
2022/05/09 07:57:28;;;;;;;12.02;5.65;;;;;;;33.65;23.95;99312.88;5012611;28;20554;-52
2022/05/09 07:59:54;;;;;;;19.50;6.45;;;;;;;33.52;24.40;99306.56;5014691;28;20042;-51
2022/05/09 08:02:20;;;;;;;20.73;6.65;;;;;;;33.63;24.19;99310.50;4996138;28;20466;-52
2022/05/09 08:07:21;;;;;;;9.98;5.82;;;;;;;33.68;23.81;99312.19;5069302;22;20056;-52
2022/05/09 08:09:47;;;;;;;23.90;9.32;;;;;;;33.34;24.44;99316.09;5054216;28;20094;-52
2022/05/09 08:12:13;;;;;;;22.52;6.55;;;;;;;33.56;24.21;99317.59;5257427;22;20053;-51
2022/05/09 08:14:38;;;;;;;21.80;5.95;;;;;;;34.02;23.96;99308.19;5033964;28;20033;-52
2022/05/09 08:17:08;;;;;;;10.02;5.18;;;;;;;34.45;23.35;99303.28;5033876;28;20057;-52
2022/05/09 08:19:33;;;;;;;7.13;4.22;;;;;;;34.68;22.73;99306.31;5033839;28;20021;-51
2022/05/09 08:22:00;;;;;;;11.02;5.15;;;;;;;35.20;22.22;99297.22;5320651;22;20127;-50
2022/05/09 08:24:28;;;;;;;24.88;5.18;;;;;;;35.36;22.05;99301.91;5053613;28;20048;-50
2022/05/09 08:26:54;;;;;;;10.48;4.60;;;;;;;35.77;21.83;99308.75;5265840;22;20384;-50
2022/05/09 08:29:20;;;;;;;8.05;4.93;;;;;;;36.40;21.02;99309.78;5033651;28;20049;-50
2022/05/09 08:31:46;;;;;;;6.80;4.22;;;;;;;37.15;20.53;99310.53;5033545;28;20069;-49
2022/05/09 08:34:14;;;;;;;11.13;5.03;;;;;;;37.50;19.94;99304.84;5033619;28;20064;-49
2022/05/09 08:39:26;;;;;;;631.85;395.10;;;;;;;38.67;19.30;99308.91;5010603;28;20057;-50
2022/05/09 08:44:37;;;;;;;54.38;31.02;;;;;;;37.84;19.43;99310.50;5177867;23;20057;-51
2022/05/09 08:47:17;;;;;;;21.55;13.23;;;;;;;37.71;19.98;99304.44;5053272;28;20047;-51
2022/05/09 08:50:04;;;;;;;21.98;9.88;;;;;;;38.32;18.86;99310.03;5053215;28;20021;-51
2022/05/09 08:52:37;;;;;;;82.80;73.85;;;;;;;37.72;19.30;99310.72;5268562;23;20966;-52
2022/05/09 08:55:03;;;;;;;32.50;21.55;;;;;;;36.09;20.46;99313.41;4995611;28;20038;-51
2022/05/09 08:57:42;;;;;;;20.55;11.68;;;;;;;35.54;21.74;99313.25;5013602;28;20203;-51
2022/05/09 09:00:13;;;;;;;16.00;8.18;;;;;;;35.71;21.51;99309.41;5013685;28;20064;-51
2022/05/09 09:02:41;;;;;;;9.65;5.40;;;;;;;36.65;20.65;99313.06;5012292;28;20462;-51
2022/05/09 09:05:11;;;;;;;17.30;7.53;;;;;;;37.42;19.99;99303.16;5013487;28;20068;-50
2022/05/09 09:07:49;;;;;;;16.23;8.45;;;;;;;38.12;19.82;99301.94;5013514;28;20062;-50
2022/05/09 09:10:48;;;;;;;14.48;7.38;;;;;;;38.42;18.92;99303.09;5013371;28;20380;-51
2022/05/09 09:13:36;;;;;;;24.38;6.15;;;;;;;38.60;18.72;99300.56;5012350;28;20502;-51
2022/05/09 09:16:38;;;;;;;33.75;10.38;;;;;;;38.79;18.90;99302.38;4997241;28;20069;-51
2022/05/09 09:19:24;;;;;;;8.82;5.07;;;;;;;39.11;18.62;99305.47;5011434;28;20042;-51
2022/05/09 09:22:18;;;;;;;11.48;5.55;;;;;;;39.06;18.47;99303.06;5013163;28;20029;-52
2022/05/09 09:24:44;;;;;;;11.32;7.25;;;;;;;38.65;18.53;99309.28;4995546;28;20498;-51
2022/05/09 09:27:40;;;;;;;18.88;5.68;;;;;;;38.43;19.05;99307.41;4995407;28;20128;-51
2022/05/09 09:30:13;;;;;;;45.55;8.75;;;;;;;38.93;18.95;99299.78;5013156;28;20104;-52
2022/05/09 09:32:43;;;;;;;26.65;6.78;;;;;;;39.50;18.35;99299.56;5013023;28;20038;-51
2022/05/09 09:35:24;;;;;;;28.23;6.15;;;;;;;39.58;17.87;99292.16;5011655;28;20133;-51
2022/05/09 09:37:58;;;;;;;18.63;5.38;;;;;;;40.16;17.74;99293.34;5012975;28;20065;-51
2022/05/09 09:40:24;;;;;;;34.10;6.85;;;;;;;40.47;17.26;99300.19;5012843;28;20041;-52
2022/05/09 09:42:54;;;;;;;21.85;5.82;;;;;;;39.77;17.93;99293.88;5012820;28;20026;-51
2022/05/09 09:45:28;;;;;;;21.00;6.22;;;;;;;39.87;18.08;99302.22;5012725;28;20467;-51
2022/05/09 09:48:22;;;;;;;8.10;4.78;;;;;;;39.84;18.28;99291.94;5012665;28;20029;-51
2022/05/09 09:51:17;;;;;;;18.48;5.78;;;;;;;40.29;17.73;99287.13;5011157;28;20046;-52
2022/05/09 09:53:52;;;;;;;8.63;4.40;;;;;;;40.43;17.60;99291.09;5012463;28;20104;-51
2022/05/09 09:56:20;;;;;;;11.80;4.13;;;;;;;40.48;17.26;99291.53;5012664;28;20396;-50
2022/05/09 09:58:52;;;;;;;24.05;6.65;;;;;;;40.13;17.51;99297.66;5012532;28;20068;-51
2022/05/09 10:01:22;;;;;;;10.63;3.58;;;;;;;39.62;17.40;99292.97;5012570;28;20030;-51
2022/05/09 10:04:09;;;;;;;16.98;3.75;;;;;;;39.43;18.02;99288.53;4994848;28;20053;-51
2022/05/09 10:06:35;;;;;;;23.40;4.28;;;;;;;39.34;17.94;99292.34;5012404;28;20044;-51
2022/05/09 10:09:06;;;;;;;19.65;4.32;;;;;;;39.52;17.60;99288.97;4994947;28;20368;-51
2022/05/09 10:11:33;;;;;;;16.15;3.85;;;;;;;39.40;17.23;99287.31;5012629;28;20041;-52
2022/05/09 10:14:02;;;;;;;23.63;4.05;;;;;;;39.39;17.55;99271.97;4994966;28;20101;-51
2022/05/09 10:16:45;;;;;;;42.30;5.18;;;;;;;39.42;17.81;99276.75;4978452;28;20494;-51
2022/05/09 10:19:44;;;;;;;24.73;4.65;;;;;;;39.29;18.00;99273.47;4996293;28;20053;-52
2022/05/09 10:25:10;;;;;;;18.33;3.90;;;;;;;39.96;17.28;99270.84;4997512;28;20091;-52
2022/05/09 10:27:38;;;;;;;21.27;3.55;;;;;;;39.57;16.88;99272.16;4994695;28;20029;-51
2022/05/09 10:30:29;;;;;;;11.85;3.00;;;;;;;39.28;17.77;99274.66;4994833;28;20022;-50
2022/05/09 10:33:15;;;;;;;15.63;3.40;;;;;;;39.50;17.35;99264.66;5012153;28;20071;-51
2022/05/09 10:35:47;;;;;;;17.02;5.18;;;;;;;39.46;17.58;99271.25;5010762;28;20041;-51
2022/05/09 10:38:57;;;;;;;5.70;2.65;;;;;;;38.93;17.78;99269.59;5012161;28;20034;-51
2022/05/09 10:41:38;;;;;;;17.02;3.70;;;;;;;38.02;18.38;99274.34;5012017;28;20018;-51
2022/05/09 10:44:34;;;;;;;18.77;5.40;;;;;;;36.37;20.41;99270.28;4994519;28;20092;-50
2022/05/09 10:47:15;;;;;;;5.40;2.60;;;;;;;36.33;19.98;99271.38;5010846;28;20037;-51
2022/05/09 10:49:54;;;;;;;9.93;3.97;;;;;;;36.19;20.17;99261.72;4994550;28;20037;-51
2022/05/09 10:52:41;;;;;;;4.05;2.60;;;;;;;36.53;20.14;99261.25;4978228;28;20053;-51
2022/05/09 10:55:13;;;;;;;5.68;3.50;;;;;;;37.06;19.42;99255.97;5011998;28;20046;-52
2022/05/09 10:57:44;;;;;;;11.40;3.47;;;;;;;37.28;19.65;99250.91;4978142;28;20018;-51
2022/05/09 11:00:23;;;;;;;7.22;3.60;;;;;;;37.44;19.46;99251.56;5011996;28;20457;-51
2022/05/09 11:03:07;;;;;;;4.45;2.80;;;;;;;37.76;18.89;99240.31;5011994;28;20033;-52
2022/05/09 11:05:59;;;;;;;7.32;3.53;;;;;;;37.45;19.43;99242.19;5011872;28;20088;-51
2022/05/09 11:09:01;;;;;;;5.40;3.03;;;;;;;36.31;19.87;99233.47;4994336;28;20036;-51
2022/05/09 11:11:51;;;;;;;5.05;3.10;;;;;;;34.51;21.99;99243.84;5011855;28;20079;-51
2022/05/09 11:14:33;;;;;;;4.50;3.08;;;;;;;33.01;23.52;99251.63;5011850;28;20398;-50
2022/05/09 11:17:34;;;;;;;17.48;3.55;;;;;;;33.49;23.42;99243.88;5011699;28;20046;-51
2022/05/09 11:20:25;;;;;;;6.25;3.58;;;;;;;34.25;23.57;99244.28;5011751;28;20034;-50
2022/05/09 11:23:09;;;;;;;5.65;3.40;;;;;;;34.87;21.99;99231.22;5011702;28;20518;-51
2022/05/09 11:25:47;;;;;;;3.05;2.58;;;;;;;33.98;21.97;99236.47;5011725;28;20026;-51
2022/05/09 11:28:45;;;;;;;8.45;2.85;;;;;;;33.65;23.48;99233.16;5011601;28;20042;-51
2022/05/09 11:31:32;;;;;;;9.48;3.05;;;;;;;34.96;21.79;99227.19;4994039;28;20495;-51
2022/05/09 11:34:14;;;;;;;3.65;2.40;;;;;;;35.74;21.08;99222.09;5011543;28;20537;-51
2022/05/09 11:36:52;;;;;;;10.10;3.50;;;;;;;36.35;20.55;99217.13;5013264;28;20048;-51
2022/05/09 11:39:23;;;;;;;5.05;2.60;;;;;;;36.96;20.04;99221.78;5015135;28;20041;-51
2022/05/09 11:45:28;;;;;;;25.48;4.70;;;;;;;37.98;19.26;99220.25;5015321;28;20125;-51
2022/05/09 11:48:32;;;;;;;8.82;3.20;;;;;;;38.39;19.10;99214.13;5014874;28;20041;-51
2022/05/09 11:51:15;;;;;;;9.07;2.67;;;;;;;38.13;18.58;99220.47;4982869;28;20041;-51
2022/05/09 11:53:45;;;;;;;22.85;3.53;;;;;;;37.87;18.57;99222.09;5014846;28;20427;-51
2022/05/09 11:56:11;;;;;;;18.30;3.03;;;;;;;37.59;18.80;99211.53;4997228;28;20044;-51
2022/05/09 11:58:41;;;;;;;13.95;3.47;;;;;;;37.68;19.34;99211.25;5014802;28;20025;-51
2022/05/09 12:01:07;;;;;;;21.08;3.28;;;;;;;37.96;18.45;99206.16;4997461;28;20025;-50
2022/05/09 12:03:42;;;;;;;22.98;3.88;;;;;;;37.31;18.43;99211.84;4980891;28;20380;-51
2022/05/09 12:06:14;;;;;;;14.45;3.80;;;;;;;35.86;20.00;99202.06;4997020;28;20030;-51
2022/05/09 12:08:46;;;;;;;27.00;3.45;;;;;;;34.72;20.94;99206.31;5014602;28;20030;-51
2022/05/09 12:11:29;;;;;;;8.15;3.25;;;;;;;33.81;21.93;99202.16;5014516;28;20030;-51